sensor_id;sensor_type;location;lat;lon;timestamp;pressure;altitude;pressure_sealevel;temperature;humidity
28921;BME280;16035;53.594;9.952;2022-10-04T00:00:40;102182.94;;;13.72;72.99
28921;BME280;16035;53.594;9.952;2022-10-04T00:02:44;102175.22;;;13.69;73.23
28921;BME280;16035;53.594;9.952;2022-10-04T00:04:51;102171.06;;;13.66;73.17
28921;BME280;16035;53.594;9.952;2022-10-04T00:07:03;102164.47;;;13.62;72.67
28921;BME280;16035;53.594;9.952;2022-10-04T00:09:12;102165.28;;;13.62;73.04
28921;BME280;16035;53.594;9.952;2022-10-04T00:13:23;102169.06;;;13.61;73.00
28921;BME280;16035;53.594;9.952;2022-10-04T00:15:30;102172.88;;;13.60;72.79
28921;BME280;16035;53.594;9.952;2022-10-04T00:17:31;102175.28;;;13.57;72.86
28921;BME280;16035;53.594;9.952;2022-10-04T00:19:46;102171.97;;;13.55;73.09
28921;BME280;16035;53.594;9.952;2022-10-04T00:24:09;102165.59;;;13.49;72.92
28921;BME280;16035;53.594;9.952;2022-10-04T00:30:37;102177.84;;;13.47;73.02
28921;BME280;16035;53.594;9.952;2022-10-04T00:34:49;102174.19;;;13.41;72.74
28921;BME280;16035;53.594;9.952;2022-10-04T00:36:50;102174.09;;;13.36;72.99
28921;BME280;16035;53.594;9.952;2022-10-04T00:41:06;102167.22;;;13.33;72.53
28921;BME280;16035;53.594;9.952;2022-10-04T00:43:12;102162.22;;;13.30;72.86
28921;BME280;16035;53.594;9.952;2022-10-04T00:45:25;102164.66;;;13.27;72.61
28921;BME280;16035;53.594;9.952;2022-10-04T00:49:47;102151.75;;;13.22;72.64
28921;BME280;16035;53.594;9.952;2022-10-04T00:51:55;102148.38;;;13.20;72.94
28921;BME280;16035;53.594;9.952;2022-10-04T00:54:23;102140.69;;;13.17;72.86
28921;BME280;16035;53.594;9.952;2022-10-04T00:56:38;102143.44;;;13.17;72.67
28921;BME280;16035;53.594;9.952;2022-10-04T00:59:04;102143.66;;;13.15;72.91
28921;BME280;16035;53.594;9.952;2022-10-04T01:01:07;102146.16;;;13.17;72.89
28921;BME280;16035;53.594;9.952;2022-10-04T01:03:32;102152.91;;;13.14;72.66
28921;BME280;16035;53.594;9.952;2022-10-04T01:05:36;102145.81;;;13.13;73.13
28921;BME280;16035;53.594;9.952;2022-10-04T01:07:42;102139.75;;;13.11;72.98
28921;BME280;16035;53.594;9.952;2022-10-04T01:09:47;102134.28;;;13.11;72.86
28921;BME280;16035;53.594;9.952;2022-10-04T01:12:02;102131.34;;;13.13;73.29
28921;BME280;16035;53.594;9.952;2022-10-04T01:14:20;102138.66;;;13.12;73.14
28921;BME280;16035;53.594;9.952;2022-10-04T01:16:27;102138.66;;;13.12;72.90
28921;BME280;16035;53.594;9.952;2022-10-04T01:18:33;102148.75;;;13.12;73.15
28921;BME280;16035;53.594;9.952;2022-10-04T01:20:37;102138.66;;;13.12;73.42
28921;BME280;16035;53.594;9.952;2022-10-04T01:22:42;102133.94;;;13.08;73.01
28921;BME280;16035;53.594;9.952;2022-10-04T01:24:47;102123.75;;;13.03;73.00
28921;BME280;16035;53.594;9.952;2022-10-04T01:26:49;102120.38;;;12.96;73.07
28921;BME280;16035;53.594;9.952;2022-10-04T01:28:49;102127.03;;;12.88;73.28
28921;BME280;16035;53.594;9.952;2022-10-04T01:30:50;102133.09;;;12.90;73.38
28921;BME280;16035;53.594;9.952;2022-10-04T01:32:50;102127.94;;;12.94;73.49
28921;BME280;16035;53.594;9.952;2022-10-04T01:34:51;102131.03;;;12.98;73.49
28921;BME280;16035;53.594;9.952;2022-10-04T01:36:54;102130.81;;;12.99;73.22
28921;BME280;16035;53.594;9.952;2022-10-04T01:38:55;102128.91;;;13.00;73.30
28921;BME280;16035;53.594;9.952;2022-10-04T01:40:58;102128.06;;;12.99;73.21
28921;BME280;16035;53.594;9.952;2022-10-04T01:43:06;102110.38;;;13.02;73.21
28921;BME280;16035;53.594;9.952;2022-10-04T01:45:36;102119.63;;;13.01;73.26
28921;BME280;16035;53.594;9.952;2022-10-04T01:47:56;102115.72;;;12.97;73.28
28921;BME280;16035;53.594;9.952;2022-10-04T01:50:02;102108.84;;;12.94;73.39
28921;BME280;16035;53.594;9.952;2022-10-04T01:52:09;102106.38;;;12.93;73.19
28921;BME280;16035;53.594;9.952;2022-10-04T01:54:19;102103.91;;;12.91;73.33
28921;BME280;16035;53.594;9.952;2022-10-04T01:56:30;102096.75;;;12.90;73.22
28921;BME280;16035;53.594;9.952;2022-10-04T01:58:40;102104.13;;;12.89;73.57
28921;BME280;16035;53.594;9.952;2022-10-04T02:00:50;102099.50;;;12.90;73.19
28921;BME280;16035;53.594;9.952;2022-10-04T02:03:03;102097.28;;;12.87;73.11
28921;BME280;16035;53.594;9.952;2022-10-04T02:05:15;102100.47;;;12.84;73.45
28921;BME280;16035;53.594;9.952;2022-10-04T02:07:17;102102.38;;;12.83;73.44
28921;BME280;16035;53.594;9.952;2022-10-04T02:09:19;102095.28;;;12.82;73.49
28921;BME280;16035;53.594;9.952;2022-10-04T02:11:22;102092.28;;;12.84;73.34
28921;BME280;16035;53.594;9.952;2022-10-04T02:13:25;102085.28;;;12.88;73.50
28921;BME280;16035;53.594;9.952;2022-10-04T02:15:28;102087.75;;;12.89;73.62
28921;BME280;16035;53.594;9.952;2022-10-04T02:17:32;102094.63;;;12.92;73.65
28921;BME280;16035;53.594;9.952;2022-10-04T02:19:40;102084.28;;;12.94;73.64
28921;BME280;16035;53.594;9.952;2022-10-04T02:21:41;102092.72;;;12.93;73.09
28921;BME280;16035;53.594;9.952;2022-10-04T02:23:43;102092.25;;;12.96;73.51
28921;BME280;16035;53.594;9.952;2022-10-04T02:25:44;102091.75;;;12.99;73.30
28921;BME280;16035;53.594;9.952;2022-10-04T02:27:45;102093.66;;;12.98;73.20
28921;BME280;16035;53.594;9.952;2022-10-04T02:29:46;102094.25;;;13.00;73.52
28921;BME280;16035;53.594;9.952;2022-10-04T02:31:47;102080.59;;;13.00;73.35
28921;BME280;16035;53.594;9.952;2022-10-04T02:34:08;102080.00;;;12.98;73.27
28921;BME280;16035;53.594;9.952;2022-10-04T02:36:09;102071.81;;;12.98;73.22
28921;BME280;16035;53.594;9.952;2022-10-04T02:38:29;102070.16;;;12.97;73.44
28921;BME280;16035;53.594;9.952;2022-10-04T02:40:40;102062.59;;;12.99;73.20
28921;BME280;16035;53.594;9.952;2022-10-04T02:42:55;102055.22;;;13.00;73.44
28921;BME280;16035;53.594;9.952;2022-10-04T02:45:13;102046.44;;;12.98;73.62
28921;BME280;16035;53.594;9.952;2022-10-04T02:47:20;102041.56;;;13.00;73.41
28921;BME280;16035;53.594;9.952;2022-10-04T02:49:30;102035.28;;;12.99;73.56
28921;BME280;16035;53.594;9.952;2022-10-04T02:54:27;102049.50;;;13.01;73.18
28921;BME280;16035;53.594;9.952;2022-10-04T02:56:01;102049.25;;;13.03;73.37
28921;BME280;16035;53.594;9.952;2022-10-04T02:58:08;102044.06;;;13.01;73.29
28921;BME280;16035;53.594;9.952;2022-10-04T03:00:19;102051.16;;;13.02;73.65
28921;BME280;16035;53.594;9.952;2022-10-04T03:02:25;102055.31;;;13.05;73.57
28921;BME280;16035;53.594;9.952;2022-10-04T03:04:31;102051.25;;;13.07;73.42
28921;BME280;16035;53.594;9.952;2022-10-04T03:06:32;102047.69;;;13.07;73.73
28921;BME280;16035;53.594;9.952;2022-10-04T03:08:54;102054.47;;;13.04;73.48
28921;BME280;16035;53.594;9.952;2022-10-04T03:10:56;102046.88;;;13.06;73.45
28921;BME280;16035;53.594;9.952;2022-10-04T03:12:58;102047.69;;;13.07;73.33
28921;BME280;16035;53.594;9.952;2022-10-04T03:14:59;102054.22;;;13.06;73.37
28921;BME280;16035;53.594;9.952;2022-10-04T03:17:00;102044.38;;;13.05;73.51
28921;BME280;16035;53.594;9.952;2022-10-04T03:19:03;102043.56;;;13.04;73.36
28921;BME280;16035;53.594;9.952;2022-10-04T03:21:07;102044.06;;;13.01;73.64
28921;BME280;16035;53.594;9.952;2022-10-04T03:23:10;102040.84;;;13.04;73.35
28921;BME280;16035;53.594;9.952;2022-10-04T03:25:27;102036.94;;;13.00;73.37
28921;BME280;16035;53.594;9.952;2022-10-04T03:27:32;102038.59;;;13.01;73.71
28921;BME280;16035;53.594;9.952;2022-10-04T03:29:34;102038.34;;;13.03;73.90
28921;BME280;16035;53.594;9.952;2022-10-04T03:31:44;102049.03;;;13.04;73.68
28921;BME280;16035;53.594;9.952;2022-10-04T03:33:46;102053.97;;;13.07;73.64
28921;BME280;16035;53.594;9.952;2022-10-04T03:35:50;102047.47;;;13.08;73.74
28921;BME280;16035;53.594;9.952;2022-10-04T03:37:52;102039.28;;;13.08;73.56
28921;BME280;16035;53.594;9.952;2022-10-04T03:39:54;102038.41;;;13.08;73.49
28921;BME280;16035;53.594;9.952;2022-10-04T03:41:55;102035.94;;;13.06;73.63
28921;BME280;16035;53.594;9.952;2022-10-04T03:43:56;102040.84;;;13.04;73.72
28921;BME280;16035;53.594;9.952;2022-10-04T03:46:01;102032.06;;;13.02;73.36
28921;BME280;16035;53.594;9.952;2022-10-04T03:48:05;102037.28;;;13.04;73.49
28921;BME280;16035;53.594;9.952;2022-10-04T03:50:33;102039.66;;;13.00;73.53
28921;BME280;16035;53.594;9.952;2022-10-04T03:52:35;102039.41;;;13.02;73.63
28921;BME280;16035;53.594;9.952;2022-10-04T03:54:37;102034.22;;;13.00;73.50
28921;BME280;16035;53.594;9.952;2022-10-04T03:56:37;102036.13;;;13.00;73.49
28921;BME280;16035;53.594;9.952;2022-10-04T03:58:38;102036.13;;;13.00;73.31
28921;BME280;16035;53.594;9.952;2022-10-04T04:00:43;102033.13;;;13.01;73.48
28921;BME280;16035;53.594;9.952;2022-10-04T04:02:55;102031.47;;;13.00;73.64
28921;BME280;16035;53.594;9.952;2022-10-04T04:05:43;102030.06;;;12.98;73.69
28921;BME280;16035;53.594;9.952;2022-10-04T04:10:26;102031.72;;;12.99;73.71
28921;BME280;16035;53.594;9.952;2022-10-04T04:12:42;102037.16;;;12.99;73.50
28921;BME280;16035;53.594;9.952;2022-10-04T04:14:48;102029.84;;;12.99;73.71
28921;BME280;16035;53.594;9.952;2022-10-04T04:16:51;102035.03;;;13.01;73.60
28921;BME280;16035;53.594;9.952;2022-10-04T04:18:52;102034.22;;;13.00;73.38
28921;BME280;16035;53.594;9.952;2022-10-04T04:20:55;102039.66;;;13.00;73.35
28921;BME280;16035;53.594;9.952;2022-10-04T04:25:03;102033.97;;;13.02;73.46
28921;BME280;16035;53.594;9.952;2022-10-04T04:27:08;102037.28;;;13.04;73.40
28921;BME280;16035;53.594;9.952;2022-10-04T04:31:24;102030.41;;;13.01;73.71
28921;BME280;16035;53.594;9.952;2022-10-04T04:33:38;102040.59;;;13.06;73.60
28921;BME280;16035;53.594;9.952;2022-10-04T04:35:42;102039.50;;;13.07;73.49
28921;BME280;16035;53.594;9.952;2022-10-04T04:37:42;102045.78;;;13.07;73.52
28921;BME280;16035;53.594;9.952;2022-10-04T04:39:42;102043.06;;;13.07;73.76
28921;BME280;16035;53.594;9.952;2022-10-04T04:41:48;102039.03;;;13.10;73.69
28921;BME280;16035;53.594;9.952;2022-10-04T04:43:48;102031.91;;;13.09;73.44
28921;BME280;16035;53.594;9.952;2022-10-04T04:45:49;102030.00;;;13.09;73.54
28921;BME280;16035;53.594;9.952;2022-10-04T04:47:54;102025.38;;;13.10;73.80
28921;BME280;16035;53.594;9.952;2022-10-04T04:50:07;102017.19;;;13.10;73.62
28921;BME280;16035;53.594;9.952;2022-10-04T04:52:14;102008.75;;;13.11;73.58
28921;BME280;16035;53.594;9.952;2022-10-04T04:54:21;102005.44;;;13.09;73.57
28921;BME280;16035;53.594;9.952;2022-10-04T04:56:25;102011.47;;;13.11;73.59
28921;BME280;16035;53.594;9.952;2022-10-04T04:58:57;102013.63;;;13.09;73.85
28921;BME280;16035;53.594;9.952;2022-10-04T05:01:01;102013.13;;;13.12;74.02
28921;BME280;16035;53.594;9.952;2022-10-04T05:03:05;102013.97;;;13.13;74.03
28921;BME280;16035;53.594;9.952;2022-10-04T05:07:27;102015.63;;;13.14;73.64
28921;BME280;16035;53.594;9.952;2022-10-04T05:09:31;102010.38;;;13.12;73.73
28921;BME280;16035;53.594;9.952;2022-10-04T05:11:34;102010.16;;;13.14;73.79
28921;BME280;16035;53.594;9.952;2022-10-04T05:13:59;102012.28;;;13.12;74.00
28921;BME280;16035;53.594;9.952;2022-10-04T05:16:02;102008.50;;;13.13;73.88
28921;BME280;16035;53.594;9.952;2022-10-04T05:18:19;102013.13;;;13.12;74.09
28921;BME280;16035;53.594;9.952;2022-10-04T05:20:22;102014.19;;;13.11;73.68
28921;BME280;16035;53.594;9.952;2022-10-04T05:22:24;102012.56;;;13.10;73.93
28921;BME280;16035;53.594;9.952;2022-10-04T05:24:29;102006.00;;;13.11;73.91
28921;BME280;16035;53.594;9.952;2022-10-04T05:26:30;102012.06;;;13.13;73.84
28921;BME280;16035;53.594;9.952;2022-10-04T05:28:31;102014.78;;;13.13;73.78
28921;BME280;16035;53.594;9.952;2022-10-04T05:32:59;102007.66;;;13.12;73.75
28921;BME280;16035;53.594;9.952;2022-10-04T05:35:00;102010.16;;;13.14;73.65
28921;BME280;16035;53.594;9.952;2022-10-04T05:39:26;102002.19;;;13.12;73.81
28921;BME280;16035;53.594;9.952;2022-10-04T05:41:33;101997.34;;;13.14;73.98
28921;BME280;16035;53.594;9.952;2022-10-04T05:43:44;102011.56;;;13.16;73.83
28921;BME280;16035;53.594;9.952;2022-10-04T05:45:45;102005.59;;;13.20;73.66
28921;BME280;16035;53.594;9.952;2022-10-04T05:47:49;102008.59;;;13.18;73.51
28921;BME280;16035;53.594;9.952;2022-10-04T05:49:53;102008.00;;;13.16;74.16
28921;BME280;16035;53.594;9.952;2022-10-04T05:54:00;102020.81;;;13.15;74.31
28921;BME280;16035;53.594;9.952;2022-10-04T05:59:00;102014.28;;;13.16;74.06
28921;BME280;16035;53.594;9.952;2022-10-04T06:03:40;102017.97;;;13.22;74.16
28921;BME280;16035;53.594;9.952;2022-10-04T06:05:54;102016.63;;;13.25;73.97
28921;BME280;16035;53.594;9.952;2022-10-04T06:08:10;102015.56;;;13.26;74.02
28921;BME280;16035;53.594;9.952;2022-10-04T06:12:42;102013.34;;;13.23;73.74
28921;BME280;16035;53.594;9.952;2022-10-04T06:15:06;102017.34;;;13.20;73.89
28921;BME280;16035;53.594;9.952;2022-10-04T06:17:23;102024.97;;;13.18;73.83
28921;BME280;16035;53.594;9.952;2022-10-04T06:24:17;102019.16;;;13.14;73.79
28921;BME280;16035;53.594;9.952;2022-10-04T06:26:22;102019.66;;;13.11;73.60
28921;BME280;16035;53.594;9.952;2022-10-04T06:28:35;102014.19;;;13.11;73.83
28921;BME280;16035;53.594;9.952;2022-10-04T06:30:54;102006.00;;;13.11;73.87
28921;BME280;16035;53.594;9.952;2022-10-04T06:33:41;102012.56;;;13.10;73.77
28921;BME280;16035;53.594;9.952;2022-10-04T06:38:29;102008.50;;;13.13;73.97
28921;BME280;16035;53.594;9.952;2022-10-04T06:40:54;102011.81;;;13.15;74.05
28921;BME280;16035;53.594;9.952;2022-10-04T06:45:46;102016.41;;;13.26;74.30
28921;BME280;16035;53.594;9.952;2022-10-04T06:50:27;102004.31;;;13.39;74.25
28921;BME280;16035;53.594;9.952;2022-10-04T06:59:47;102002.78;;;13.65;73.58
28921;BME280;16035;53.594;9.952;2022-10-04T07:02:05;102005.09;;;13.73;73.66
28921;BME280;16035;53.594;9.952;2022-10-04T07:06:11;102006.59;;;13.81;73.48
28921;BME280;16035;53.594;9.952;2022-10-04T07:10:51;102005.53;;;14.04;73.33
28921;BME280;16035;53.594;9.952;2022-10-04T07:15:22;102008.16;;;14.15;73.35
28921;BME280;16035;53.594;9.952;2022-10-04T07:17:29;102003.88;;;14.25;73.11
28921;BME280;16035;53.594;9.952;2022-10-04T07:19:45;102006.41;;;14.31;73.09
28921;BME280;16035;53.594;9.952;2022-10-04T07:24:11;102013.03;;;14.35;72.70
28921;BME280;16035;53.594;9.952;2022-10-04T07:26:40;102009.47;;;14.35;72.99
28921;BME280;16035;53.594;9.952;2022-10-04T07:28:43;102012.69;;;14.32;72.90
28921;BME280;16035;53.594;9.952;2022-10-04T07:31:23;102009.91;;;14.27;72.69
28921;BME280;16035;53.594;9.952;2022-10-04T07:33:26;102014.22;;;14.23;72.77
28921;BME280;16035;53.594;9.952;2022-10-04T07:35:54;102015.59;;;14.20;72.60
28921;BME280;16035;53.594;9.952;2022-10-04T07:38:09;102011.44;;;14.18;72.82
28921;BME280;16035;53.594;9.952;2022-10-04T07:40:24;102013.69;;;14.21;72.82
28921;BME280;16035;53.594;9.952;2022-10-04T07:42:38;102024.03;;;14.19;72.55
28921;BME280;16035;53.594;9.952;2022-10-04T07:44:52;102027.34;;;14.21;72.64
28921;BME280;16035;53.594;9.952;2022-10-04T07:47:05;102029.00;;;14.22;72.69
28921;BME280;16035;53.594;9.952;2022-10-04T07:49:14;102024.34;;;14.22;72.56
28921;BME280;16035;53.594;9.952;2022-10-04T07:51:37;102025.16;;;14.23;72.88
28921;BME280;16035;53.594;9.952;2022-10-04T07:54:09;102024.09;;;14.24;72.64
28921;BME280;16035;53.594;9.952;2022-10-04T07:56:17;102026.06;;;14.28;72.52
28921;BME280;16035;53.594;9.952;2022-10-04T08:05:33;102018.88;;;14.44;72.58
28921;BME280;16035;53.594;9.952;2022-10-04T08:12:33;102020.19;;;14.63;72.78
28921;BME280;16035;53.594;9.952;2022-10-04T08:14:52;102020.25;;;14.69;72.83
28921;BME280;16035;53.594;9.952;2022-10-04T08:21:33;102020.97;;;14.86;72.50
28921;BME280;16035;53.594;9.952;2022-10-04T08:24:03;102014.50;;;14.92;72.41
28921;BME280;16035;53.594;9.952;2022-10-04T08:33:46;102008.91;;;15.46;72.29
28921;BME280;16035;53.594;9.952;2022-10-04T08:38:03;102010.78;;;15.73;71.28
28921;BME280;16035;53.594;9.952;2022-10-04T08:50:36;102020.53;;;15.58;71.25
28921;BME280;16035;53.594;9.952;2022-10-04T08:52:51;102013.91;;;15.54;71.06
28921;BME280;16035;53.594;9.952;2022-10-04T08:57:45;102022.13;;;15.54;71.21
28921;BME280;16035;53.594;9.952;2022-10-04T09:19:10;102002.94;;;15.97;71.15
28921;BME280;16035;53.594;9.952;2022-10-04T09:25:47;101998.06;;;16.04;70.63
28921;BME280;16035;53.594;9.952;2022-10-04T09:30:44;101993.44;;;16.20;70.53
28921;BME280;16035;53.594;9.952;2022-10-04T09:39:59;101983.38;;;16.35;70.55
28921;BME280;16035;53.594;9.952;2022-10-04T09:44:43;101992.44;;;16.46;70.00
28921;BME280;16035;53.594;9.952;2022-10-04T09:51:18;101989.69;;;16.46;70.28
28921;BME280;16035;53.594;9.952;2022-10-04T09:56:02;101995.75;;;16.48;70.06
28921;BME280;16035;53.594;9.952;2022-10-04T09:58:14;101990.28;;;16.48;69.78
28921;BME280;16035;53.594;9.952;2022-10-04T10:00:31;101992.44;;;16.46;69.96
28921;BME280;16035;53.594;9.952;2022-10-04T10:05:29;101993.56;;;16.50;69.94
28921;BME280;16035;53.594;9.952;2022-10-04T10:08:02;101996.06;;;16.57;70.20
28921;BME280;16035;53.594;9.952;2022-10-04T10:13:22;101994.19;;;16.73;69.92
28921;BME280;16035;53.594;9.952;2022-10-04T10:18:12;101993.13;;;16.89;69.80
28921;BME280;16035;53.594;9.952;2022-10-04T10:27:24;101985.72;;;17.05;69.00
28921;BME280;16035;53.594;9.952;2022-10-04T10:29:33;101979.66;;;17.08;68.91
28921;BME280;16035;53.594;9.952;2022-10-04T10:41:36;101965.13;;;17.07;69.02
28921;BME280;16035;53.594;9.952;2022-10-04T10:46:16;101972.72;;;17.82;68.45
28921;BME280;16035;53.594;9.952;2022-10-04T10:58:39;101963.81;;;18.10;66.31
28921;BME280;16035;53.594;9.952;2022-10-04T11:03:52;101963.88;;;17.90;66.57
28921;BME280;16035;53.594;9.952;2022-10-04T11:16:12;101950.13;;;20.81;64.30
28921;BME280;16035;53.594;9.952;2022-10-04T11:30:24;101940.75;;;20.39;63.57
28921;BME280;16035;53.594;9.952;2022-10-04T11:32:53;101941.84;;;20.62;62.74
28921;BME280;16035;53.594;9.952;2022-10-04T11:42:18;101922.63;;;20.89;60.16
28921;BME280;16035;53.594;9.952;2022-10-04T11:49:09;101906.50;;;20.02;60.21
28921;BME280;16035;53.594;9.952;2022-10-04T11:59:02;101906.81;;;19.29;60.71
28921;BME280;16035;53.594;9.952;2022-10-04T12:01:19;101895.94;;;19.13;61.09
28921;BME280;16035;53.594;9.952;2022-10-04T12:06:22;101903.34;;;18.84;61.02
28921;BME280;16035;53.594;9.952;2022-10-04T12:33:23;101852.63;;;18.56;60.54
28921;BME280;16035;53.594;9.952;2022-10-04T12:40:29;101857.59;;;18.54;61.19
28921;BME280;16035;53.594;9.952;2022-10-04T12:42:35;101851.50;;;18.57;61.03
28921;BME280;16035;53.594;9.952;2022-10-04T12:45:53;101849.06;;;18.55;60.79
28921;BME280;16035;53.594;9.952;2022-10-04T12:51:53;101829.78;;;18.55;60.72
28921;BME280;16035;53.594;9.952;2022-10-04T13:01:38;101831.88;;;18.34;60.11
28921;BME280;16035;53.594;9.952;2022-10-04T13:06:03;101836.00;;;18.37;60.25
28921;BME280;16035;53.594;9.952;2022-10-04T13:08:45;101829.66;;;18.36;59.90
28921;BME280;16035;53.594;9.952;2022-10-04T13:11:03;101831.31;;;18.37;60.30
28921;BME280;16035;53.594;9.952;2022-10-04T13:15:42;101839.31;;;18.34;60.28
28921;BME280;16035;53.594;9.952;2022-10-04T13:22:58;101831.44;;;18.22;60.05
28921;BME280;16035;53.594;9.952;2022-10-04T13:27:57;101834.78;;;18.14;59.31
28921;BME280;16035;53.594;9.952;2022-10-04T13:30:15;101833.41;;;18.11;59.43
28921;BME280;16035;53.594;9.952;2022-10-04T13:32:26;101823.78;;;18.14;59.71
28921;BME280;16035;53.594;9.952;2022-10-04T13:34:39;101823.78;;;18.14;59.49
28921;BME280;16035;53.594;9.952;2022-10-04T13:37:19;101813.59;;;18.14;59.26
28921;BME280;16035;53.594;9.952;2022-10-04T13:42:08;101797.13;;;18.09;59.43
28921;BME280;16035;53.594;9.952;2022-10-04T13:44:25;101788.56;;;18.11;59.54
28921;BME280;16035;53.594;9.952;2022-10-04T13:56:00;101764.16;;;18.04;59.66
28921;BME280;16035;53.594;9.952;2022-10-04T13:58:47;101771.34;;;18.00;59.15
28921;BME280;16035;53.594;9.952;2022-10-04T14:01:05;101768.59;;;18.00;59.75
28921;BME280;16035;53.594;9.952;2022-10-04T14:03:25;101772.41;;;17.99;59.49
28921;BME280;16035;53.594;9.952;2022-10-04T14:05:57;101778.47;;;18.01;59.30
28921;BME280;16035;53.594;9.952;2022-10-04T14:15:38;101758.94;;;18.03;59.36
28921;BME280;16035;53.594;9.952;2022-10-04T14:20:24;101755.09;;;17.99;59.33
28921;BME280;16035;53.594;9.952;2022-10-04T14:25:12;101747.16;;;17.97;58.94
28921;BME280;16035;53.594;9.952;2022-10-04T14:39:39;101743.88;;;17.90;58.43
28921;BME280;16035;53.594;9.952;2022-10-04T14:46:58;101745.81;;;17.89;58.47
28921;BME280;16035;53.594;9.952;2022-10-04T14:49:16;101744.19;;;17.88;58.39
28921;BME280;16035;53.594;9.952;2022-10-04T14:56:21;101756.00;;;17.89;58.51
28921;BME280;16035;53.594;9.952;2022-10-04T15:01:04;101759.31;;;17.91;58.43
28921;BME280;16035;53.594;9.952;2022-10-04T15:05:53;101748.88;;;17.88;59.15
28921;BME280;16035;53.594;9.952;2022-10-04T15:10:25;101741.72;;;17.87;58.70
28921;BME280;16035;53.594;9.952;2022-10-04T15:12:40;101733.19;;;17.88;58.51
28921;BME280;16035;53.594;9.952;2022-10-04T15:15:06;101737.34;;;17.86;58.57
28921;BME280;16035;53.594;9.952;2022-10-04T15:17:30;101742.59;;;17.82;58.42
28921;BME280;16035;53.594;9.952;2022-10-04T15:20:30;101739.84;;;17.82;58.75
28921;BME280;16035;53.594;9.952;2022-10-04T15:22:25;101739.53;;;17.84;58.98
28921;BME280;16035;53.594;9.952;2022-10-04T15:24:49;101736.28;;;17.82;58.63
28921;BME280;16035;53.594;9.952;2022-10-04T15:26:57;101736.28;;;17.77;58.50
28921;BME280;16035;53.594;9.952;2022-10-04T15:36:15;101750.03;;;17.72;58.95
28921;BME280;16035;53.594;9.952;2022-10-04T15:38:38;101747.28;;;17.72;58.76
28921;BME280;16035;53.594;9.952;2022-10-04T15:43:33;101731.38;;;17.68;59.07
28921;BME280;16035;53.594;9.952;2022-10-04T15:50:52;101731.97;;;17.60;59.10
28921;BME280;16035;53.594;9.952;2022-10-04T16:00:24;101703.75;;;17.44;59.56
28921;BME280;16035;53.594;9.952;2022-10-04T16:03:03;101696.94;;;17.37;59.23
28921;BME280;16035;53.594;9.952;2022-10-04T16:05:36;101704.91;;;17.33;59.39
28921;BME280;16035;53.594;9.952;2022-10-04T16:10:30;101699.72;;;17.27;59.55
28921;BME280;16035;53.594;9.952;2022-10-04T16:15:00;101698.13;;;17.21;59.56
28921;BME280;16035;53.594;9.952;2022-10-04T16:17:26;101692.91;;;17.14;59.53
28921;BME280;16035;53.594;9.952;2022-10-04T16:23:43;101699.84;;;17.06;60.02
28921;BME280;16035;53.594;9.952;2022-10-04T16:25:44;101697.34;;;17.05;60.34
28921;BME280;16035;53.594;9.952;2022-10-04T16:32:26;101694.66;;;16.95;60.39
28921;BME280;16035;53.594;9.952;2022-10-04T16:38:51;101700.75;;;16.81;60.58
28921;BME280;16035;53.594;9.952;2022-10-04T16:41:28;101697.47;;;16.74;60.50
28921;BME280;16035;53.594;9.952;2022-10-04T16:43:31;101698.56;;;16.73;60.85
28921;BME280;16035;53.594;9.952;2022-10-04T16:50:47;101690.63;;;16.61;60.83
28921;BME280;16035;53.594;9.952;2022-10-04T16:53:15;101691.16;;;16.63;60.86
28921;BME280;16035;53.594;9.952;2022-10-04T16:55:27;101694.44;;;16.60;60.97
28921;BME280;16035;53.594;9.952;2022-10-04T16:57:32;101700.50;;;16.57;61.02
28921;BME280;16035;53.594;9.952;2022-10-04T17:02:01;101690.63;;;16.51;61.08
28921;BME280;16035;53.594;9.952;2022-10-04T17:04:22;101689.53;;;16.47;61.06
28921;BME280;16035;53.594;9.952;2022-10-04T17:08:45;101677.25;;;16.34;61.05
28921;BME280;16035;53.594;9.952;2022-10-04T17:17:48;101673.94;;;16.32;61.38
28921;BME280;16035;53.594;9.952;2022-10-04T17:20:01;101686.31;;;16.30;61.64
28921;BME280;16035;53.594;9.952;2022-10-04T17:22:41;101692.31;;;16.27;61.55
28921;BME280;16035;53.594;9.952;2022-10-04T17:24:53;101693.16;;;16.22;61.67
28921;BME280;16035;53.594;9.952;2022-10-04T17:29:56;101701.41;;;16.12;61.93
28921;BME280;16035;53.594;9.952;2022-10-04T17:34:30;101698.09;;;16.15;62.24
28921;BME280;16035;53.594;9.952;2022-10-04T17:36:49;101701.13;;;16.13;62.09
28921;BME280;16035;53.594;9.952;2022-10-04T17:41:14;101698.38;;;16.13;62.34
28921;BME280;16035;53.594;9.952;2022-10-04T17:48:41;101698.94;;;16.00;62.61
28921;BME280;16035;53.594;9.952;2022-10-04T17:53:50;101683.59;;;15.94;62.46
28921;BME280;16035;53.594;9.952;2022-10-04T17:56:12;101689.88;;;15.89;62.71
28921;BME280;16035;53.594;9.952;2022-10-04T17:58:26;101697.81;;;15.86;63.07
28921;BME280;16035;53.594;9.952;2022-10-04T18:00:49;101689.31;;;15.82;62.88
28921;BME280;16035;53.594;9.952;2022-10-04T18:05:11;101690.97;;;15.83;63.19
28921;BME280;16035;53.594;9.952;2022-10-04T18:09:40;101703.56;;;15.79;63.18
28921;BME280;16035;53.594;9.952;2022-10-04T18:11:48;101689.03;;;15.79;63.29
28921;BME280;16035;53.594;9.952;2022-10-04T18:14:01;101698.91;;;15.75;63.21
28921;BME280;16035;53.594;9.952;2022-10-04T18:16:15;101699.72;;;15.70;63.32
28921;BME280;16035;53.594;9.952;2022-10-04T18:18:26;101701.91;;;15.68;63.39
28921;BME280;16035;53.594;9.952;2022-10-04T18:20:37;101703.03;;;15.67;63.62
28921;BME280;16035;53.594;9.952;2022-10-04T18:22:46;101701.88;;;15.63;63.45
28921;BME280;16035;53.594;9.952;2022-10-04T18:25:01;101706.28;;;15.64;63.67
28921;BME280;16035;53.594;9.952;2022-10-04T18:27:20;101706.78;;;15.61;63.74
28921;BME280;16035;53.594;9.952;2022-10-04T18:29:37;101701.59;;;15.59;63.53